createdAt,value
2018-08-22T00:01:13.196Z,99.90
2018-08-22T00:03:47.364Z,99.90
2018-08-22T00:06:21.453Z,99.90
2018-08-22T00:08:55.592Z,99.90
2018-08-22T00:11:29.919Z,99.90
2018-08-22T00:14:04.119Z,99.90
2018-08-22T00:16:38.884Z,99.90
2018-08-22T00:19:13.065Z,99.90
2018-08-22T00:21:47.210Z,99.90
2018-08-22T00:24:21.356Z,99.90
2018-08-22T00:26:55.525Z,99.90
2018-08-22T00:29:30.873Z,99.90
2018-08-22T00:32:05.982Z,99.90
2018-08-22T00:34:41.099Z,99.90
2018-08-22T00:37:15.232Z,99.90
2018-08-22T00:39:49.447Z,99.90
2018-08-22T00:42:23.620Z,99.90
2018-08-22T00:44:57.896Z,99.90
2018-08-22T00:47:32.057Z,99.90
2018-08-22T00:50:06.230Z,99.90
2018-08-22T00:52:40.367Z,99.90
2018-08-22T00:55:20.027Z,99.90
2018-08-22T00:57:54.251Z,99.90
2018-08-22T01:00:28.392Z,99.90
2018-08-22T01:03:02.591Z,99.90
2018-08-22T01:05:36.745Z,99.90
2018-08-22T01:08:10.896Z,99.90
2018-08-22T01:10:45.220Z,99.90
2018-08-22T01:13:19.375Z,99.90
2018-08-22T01:15:53.547Z,99.90
2018-08-22T01:18:27.711Z,99.90
2018-08-22T01:21:01.866Z,99.90
2018-08-22T01:23:36.047Z,99.90
2018-08-22T01:26:10.194Z,99.90
2018-08-22T01:28:44.485Z,99.90
2018-08-22T01:31:18.614Z,99.90
2018-08-22T01:33:52.912Z,99.90
2018-08-22T01:36:27.032Z,99.90
2018-08-22T01:39:01.211Z,99.90
2018-08-22T01:41:36.402Z,99.90
2018-08-22T01:44:10.765Z,99.90
2018-08-22T01:46:44.892Z,99.90
2018-08-22T01:49:19.061Z,99.90
2018-08-22T01:51:53.218Z,99.90
2018-08-22T01:54:27.376Z,99.90
2018-08-22T01:57:02.547Z,99.90
2018-08-22T01:59:37.698Z,99.90
2018-08-22T02:02:11.854Z,99.90
2018-08-22T02:04:46.023Z,99.90
2018-08-22T02:07:20.194Z,99.90
2018-08-22T02:09:55.341Z,99.90
2018-08-22T02:12:29.452Z,99.90
2018-08-22T02:15:03.569Z,99.90
2018-08-22T02:17:37.711Z,99.90
2018-08-22T02:20:11.859Z,99.90
2018-08-22T02:22:46.059Z,99.90
2018-08-22T02:25:20.170Z,99.90
2018-08-22T02:27:54.361Z,99.90
2018-08-22T02:30:28.504Z,99.90
2018-08-22T02:33:05.979Z,99.90
2018-08-22T02:35:40.135Z,99.90
2018-08-22T02:38:18.395Z,99.90
2018-08-22T02:40:53.701Z,99.90
2018-08-22T02:43:27.910Z,99.90
2018-08-22T02:46:02.054Z,99.90
2018-08-22T02:48:41.365Z,99.90
2018-08-22T02:51:15.501Z,99.90
2018-08-22T02:53:49.775Z,99.90
2018-08-22T02:56:23.963Z,99.90
2018-08-22T02:58:58.179Z,99.90
2018-08-22T03:01:33.353Z,99.90
2018-08-22T03:04:07.576Z,99.90
2018-08-22T03:06:41.800Z,99.90
2018-08-22T03:09:16.044Z,99.90
2018-08-22T03:11:50.306Z,99.90
2018-08-22T03:14:25.469Z,99.90
2018-08-22T03:17:00.656Z,99.90
2018-08-22T03:19:34.906Z,99.90
2018-08-22T03:22:09.075Z,99.90
2018-08-22T03:24:43.300Z,99.90
2018-08-22T03:27:17.425Z,99.90
2018-08-22T03:29:51.996Z,99.90
2018-08-22T03:32:26.159Z,99.90
2018-08-22T03:35:00.381Z,99.90
2018-08-22T03:37:34.529Z,99.90
2018-08-22T03:40:08.691Z,99.90
2018-08-22T03:42:42.858Z,99.90
2018-08-22T03:45:17.041Z,99.90
2018-08-22T03:47:51.200Z,99.90
2018-08-22T03:50:25.360Z,99.90
2018-08-22T03:52:59.517Z,99.90
2018-08-22T03:55:34.738Z,99.90
2018-08-22T03:58:08.960Z,99.90
2018-08-22T04:00:43.131Z,99.90
2018-08-22T04:03:17.241Z,99.90
2018-08-22T04:05:52.453Z,99.90
2018-08-22T04:08:26.643Z,99.90
2018-08-22T04:11:01.834Z,99.90
2018-08-22T04:13:36.083Z,99.90
2018-08-22T04:16:10.239Z,99.90
2018-08-22T04:18:44.429Z,99.90
2018-08-22T04:21:18.623Z,99.90
2018-08-22T04:23:52.791Z,99.90
2018-08-22T04:26:26.955Z,99.90
2018-08-22T04:29:01.126Z,99.90
2018-08-22T04:31:35.286Z,99.90
2018-08-22T04:34:09.490Z,99.90
2018-08-22T04:36:43.648Z,99.90
2018-08-22T04:39:18.852Z,99.90
2018-08-22T04:41:53.041Z,99.90
2018-08-22T04:44:27.249Z,99.90
2018-08-22T04:47:01.404Z,99.90
2018-08-22T04:49:36.610Z,99.90
2018-08-22T04:52:10.793Z,99.90
2018-08-22T04:54:44.960Z,99.90
2018-08-22T04:57:19.167Z,99.90
2018-08-22T04:59:53.344Z,99.90
2018-08-22T05:02:27.631Z,99.90
2018-08-22T05:05:01.800Z,99.90
2018-08-22T05:07:35.971Z,99.90
2018-08-22T05:10:10.154Z,99.90
2018-08-22T05:12:44.394Z,99.90
2018-08-22T05:15:18.542Z,99.90
2018-08-22T05:17:52.740Z,99.90
2018-08-22T05:20:26.920Z,99.90
2018-08-22T05:23:01.137Z,99.90
2018-08-22T05:25:35.262Z,99.90
2018-08-22T05:28:09.461Z,99.90
2018-08-22T05:30:44.175Z,99.90
2018-08-22T05:33:18.927Z,99.90
2018-08-22T05:35:54.722Z,99.90
2018-08-22T05:38:29.464Z,99.90
2018-08-22T05:41:05.278Z,99.90
2018-08-22T05:43:39.982Z,99.90
2018-08-22T05:46:14.737Z,99.90
2018-08-22T05:48:49.477Z,99.90
2018-08-22T05:51:24.247Z,99.90
2018-08-22T05:53:58.939Z,99.90
2018-08-22T05:56:34.713Z,99.90
2018-08-22T05:59:09.455Z,99.90
2018-08-22T06:01:44.191Z,99.90
2018-08-22T06:04:18.899Z,99.90
2018-08-22T06:06:53.664Z,99.90
2018-08-22T06:09:28.386Z,99.90
2018-08-22T06:12:03.176Z,99.90
2018-08-22T06:14:38.937Z,99.90
2018-08-22T06:17:13.737Z,99.90
2018-08-22T06:19:48.668Z,99.90
2018-08-22T06:22:23.469Z,99.90
2018-08-22T06:24:58.188Z,99.90
2018-08-22T06:27:32.980Z,99.90
2018-08-22T06:30:09.178Z,99.90
2018-08-22T06:32:43.881Z,99.90
2018-08-22T06:35:18.610Z,99.90
2018-08-22T06:37:53.320Z,99.90
2018-08-22T06:40:28.043Z,99.90
2018-08-22T06:43:02.744Z,99.10
2018-08-22T06:45:38.469Z,98.60
2018-08-22T06:48:13.204Z,96.20
2018-08-22T06:50:47.941Z,95.80
2018-08-22T06:53:22.611Z,96.00
2018-08-22T06:55:57.351Z,94.90
2018-08-22T06:58:33.086Z,95.60
2018-08-22T07:01:08.874Z,95.50
2018-08-22T07:03:43.603Z,94.60
2018-08-22T07:06:18.333Z,94.60
2018-08-22T07:08:53.030Z,92.20
2018-08-22T07:11:30.298Z,92.40
2018-08-22T07:14:05.086Z,91.50
2018-08-22T07:16:39.992Z,89.40
2018-08-22T07:19:14.717Z,87.00
2018-08-22T07:21:49.437Z,87.20
2018-08-22T07:24:24.236Z,87.10
2018-08-22T07:26:59.995Z,83.30
2018-08-22T07:29:34.744Z,83.30
2018-08-22T07:32:09.502Z,83.70
2018-08-22T07:34:45.308Z,84.90
2018-08-22T07:37:20.147Z,82.30
2018-08-22T07:39:55.919Z,82.20
2018-08-22T07:42:30.616Z,80.50
2018-08-22T07:45:05.962Z,78.10
2018-08-22T07:47:40.686Z,77.50
2018-08-22T07:50:15.173Z,72.50
2018-08-22T07:52:55.009Z,72.20
2018-08-22T07:55:29.816Z,69.80
2018-08-22T07:58:04.703Z,70.00
2018-08-22T08:00:39.173Z,67.90
2018-08-22T08:03:13.948Z,66.80
2018-08-22T08:05:48.430Z,69.90
2018-08-22T08:08:23.349Z,70.00
2018-08-22T08:10:58.163Z,68.40
2018-08-22T08:13:33.717Z,66.10
2018-08-22T08:16:08.477Z,63.90
2018-08-22T08:18:42.962Z,64.90
2018-08-22T08:21:17.441Z,67.50
2018-08-22T08:23:51.888Z,63.70
2018-08-22T08:26:26.419Z,61.80
2018-08-22T08:29:00.829Z,62.30
2018-08-22T08:31:36.625Z,62.80
2018-08-22T08:34:11.025Z,64.00
2018-08-22T08:36:45.511Z,62.10
2018-08-22T08:39:19.938Z,63.70
2018-08-22T08:41:54.454Z,60.90
2018-08-22T08:44:30.062Z,59.40
2018-08-22T08:47:04.537Z,57.80
2018-08-22T08:49:39.055Z,58.00
2018-08-22T08:52:13.664Z,58.20
2018-08-22T08:54:48.121Z,58.10
2018-08-22T08:57:22.670Z,57.00
2018-08-22T08:59:57.174Z,55.40
2018-08-22T09:02:32.611Z,54.60
2018-08-22T09:05:07.053Z,53.60
2018-08-22T09:07:42.540Z,54.70
2018-08-22T09:10:17.011Z,53.50
2018-08-22T09:12:51.492Z,53.80
2018-08-22T09:15:25.927Z,52.70
2018-08-22T09:18:00.389Z,52.60
2018-08-22T09:20:34.850Z,51.30
2018-08-22T09:23:09.332Z,53.80
2018-08-22T09:25:43.847Z,53.90
2018-08-22T09:28:19.276Z,53.00
2018-08-22T09:30:53.739Z,53.00
2018-08-22T09:33:28.196Z,53.00
2018-08-22T09:36:02.682Z,53.20
2018-08-22T09:38:37.143Z,54.20
2018-08-22T09:41:11.621Z,55.60
2018-08-22T09:43:46.045Z,53.90
2018-08-22T09:46:20.525Z,52.90
2018-08-22T09:48:54.966Z,52.70
2018-08-22T09:51:29.444Z,54.20
2018-08-22T09:54:04.925Z,51.60
2018-08-22T09:56:39.383Z,52.90
2018-08-22T09:59:13.829Z,53.70
2018-08-22T10:01:48.285Z,53.10
2018-08-22T10:04:23.774Z,52.60
2018-08-22T10:06:59.262Z,52.00
2018-08-22T10:09:34.688Z,49.90
2018-08-22T10:12:09.179Z,52.20
2018-08-22T10:14:44.640Z,53.80
2018-08-22T10:17:19.223Z,52.70
2018-08-22T10:19:54.802Z,51.40
2018-08-22T10:22:29.302Z,50.00
2018-08-22T10:25:03.725Z,48.30
2018-08-22T10:27:38.162Z,49.70
2018-08-22T10:30:12.570Z,51.60
2018-08-22T10:32:47.051Z,51.00
2018-08-22T10:35:21.656Z,51.70
2018-08-22T10:37:57.150Z,50.70
2018-08-22T10:40:31.572Z,50.70
2018-08-22T10:43:06.007Z,50.30
2018-08-22T10:45:40.392Z,49.00
2018-08-22T10:48:14.858Z,50.00
2018-08-22T10:50:50.472Z,49.50
2018-08-22T10:53:24.960Z,49.00
2018-08-22T10:55:59.376Z,50.10
2018-08-22T10:58:33.864Z,50.30
2018-08-22T11:01:08.283Z,49.90
2018-08-22T11:03:43.849Z,49.30
2018-08-22T11:06:19.305Z,50.50
2018-08-22T11:08:53.767Z,50.50
2018-08-22T11:11:28.179Z,51.50
2018-08-22T11:14:02.662Z,51.20
2018-08-22T11:16:37.061Z,51.60
2018-08-22T11:19:12.545Z,51.30
2018-08-22T11:21:57.984Z,51.30
2018-08-22T11:24:43.565Z,51.30
2018-08-22T11:27:29.957Z,51.60
2018-08-22T11:30:16.309Z,52.60
2018-08-22T11:33:02.816Z,50.10
2018-08-22T11:35:35.767Z,50.40
2018-08-22T11:38:11.251Z,51.80
2018-08-22T11:40:45.672Z,51.50
2018-08-22T11:43:20.260Z,49.80
2018-08-22T11:45:54.749Z,50.10
2018-08-22T11:48:29.219Z,49.50
2018-08-22T11:51:03.652Z,48.70
2018-08-22T11:53:38.104Z,49.70
2018-08-22T11:56:12.538Z,49.60
2018-08-22T11:58:47.006Z,50.60
2018-08-22T12:01:22.457Z,50.40
2018-08-22T12:03:56.993Z,50.20
2018-08-22T12:06:31.433Z,51.50
2018-08-22T12:09:09.008Z,50.90
2018-08-22T12:11:43.909Z,51.10
2018-08-22T12:14:19.372Z,49.40
2018-08-22T12:16:53.824Z,48.90
2018-08-22T12:19:28.302Z,50.10
2018-08-22T12:22:02.737Z,48.90
2018-08-22T12:24:37.237Z,49.60
2018-08-22T12:27:11.655Z,49.60
2018-08-22T12:29:46.111Z,49.50
2018-08-22T12:32:20.544Z,49.60
2018-08-22T12:34:55.023Z,49.50
2018-08-22T12:37:29.422Z,50.30
2018-08-22T12:40:05.297Z,49.70
2018-08-22T12:42:39.835Z,49.60
2018-08-22T12:45:14.334Z,48.60
2018-08-22T12:47:48.837Z,49.80
2018-08-22T12:50:23.336Z,49.60
2018-08-22T12:52:57.941Z,49.10
2018-08-22T12:55:32.410Z,49.10
2018-08-22T12:58:07.854Z,48.90
2018-08-22T13:00:42.354Z,49.10
2018-08-22T13:03:16.802Z,49.40
2018-08-22T13:05:51.261Z,49.50
2018-08-22T13:08:25.720Z,48.10
2018-08-22T13:11:00.162Z,48.00
2018-08-22T13:13:34.812Z,48.30
2018-08-22T13:16:09.244Z,48.10
2018-08-22T13:18:43.700Z,48.00
2018-08-22T13:21:19.138Z,47.80
2018-08-22T13:23:53.640Z,47.50
2018-08-22T13:26:28.068Z,48.70
2018-08-22T13:29:02.544Z,47.70
2018-08-22T13:31:37.985Z,48.00
2018-08-22T13:34:12.436Z,48.40
2018-08-22T13:36:46.895Z,48.60
2018-08-22T13:39:21.353Z,47.40
2018-08-22T13:41:55.792Z,47.40
2018-08-22T13:44:30.281Z,47.70
2018-08-22T13:47:04.790Z,47.60
2018-08-22T13:49:39.220Z,47.70
2018-08-22T13:52:13.681Z,47.80
2018-08-22T13:54:48.112Z,47.80
2018-08-22T13:57:23.616Z,48.10
2018-08-22T13:59:58.088Z,48.60
2018-08-22T14:02:33.629Z,48.70
2018-08-22T14:05:09.126Z,48.90
2018-08-22T14:07:44.624Z,48.30
2018-08-22T14:10:20.087Z,48.40
2018-08-22T14:12:54.621Z,48.40
2018-08-22T14:15:29.050Z,47.70
2018-08-22T14:18:03.554Z,48.60
2018-08-22T14:20:38.025Z,49.10
2018-08-22T14:23:13.544Z,48.40
2018-08-22T14:25:47.957Z,48.00
2018-08-22T14:28:22.425Z,47.80
2018-08-22T14:30:57.058Z,48.90
2018-08-22T14:33:31.458Z,47.80
2018-08-22T14:36:07.028Z,48.20
2018-08-22T14:38:45.167Z,48.60
2018-08-22T14:41:19.636Z,48.50
2018-08-22T14:43:54.076Z,46.80
2018-08-22T14:46:28.557Z,47.40
2018-08-22T14:49:03.002Z,46.70
2018-08-22T14:51:37.489Z,46.50
2018-08-22T14:54:12.295Z,47.60
2018-08-22T14:56:46.732Z,47.10
2018-08-22T14:59:21.130Z,47.80
2018-08-22T15:01:55.649Z,47.60
2018-08-22T15:04:30.119Z,47.90
2018-08-22T15:07:04.647Z,46.60
2018-08-22T15:09:39.077Z,45.40
2018-08-22T15:12:13.529Z,45.40
2018-08-22T15:14:47.950Z,45.80
2018-08-22T15:17:22.424Z,46.40
2018-08-22T15:19:57.165Z,46.20
2018-08-22T15:22:31.646Z,46.60
2018-08-22T15:25:06.705Z,46.80
2018-08-22T15:27:42.232Z,45.90
2018-08-22T15:30:16.701Z,45.90
2018-08-22T15:32:51.142Z,46.20
2018-08-22T15:35:25.928Z,46.50
2018-08-22T15:38:01.727Z,46.20
2018-08-22T15:40:36.185Z,47.60
2018-08-22T15:43:10.621Z,46.80
2018-08-22T15:45:45.337Z,46.70
2018-08-22T15:48:19.804Z,46.40
2018-08-22T15:50:55.551Z,46.60
2018-08-22T15:53:34.853Z,46.90
2018-08-22T15:56:09.477Z,46.00
2018-08-22T15:58:43.999Z,46.00
2018-08-22T16:01:18.474Z,46.00
2018-08-22T16:03:53.236Z,46.20
2018-08-22T16:06:28.664Z,46.40
2018-08-22T16:09:03.452Z,46.00
2018-08-22T16:11:37.953Z,46.70
2018-08-22T16:14:12.369Z,46.90
2018-08-22T16:16:47.132Z,46.80
2018-08-22T16:19:21.863Z,46.60
2018-08-22T16:21:57.572Z,46.70
2018-08-22T16:24:32.050Z,47.20
2018-08-22T16:27:06.792Z,46.50
2018-08-22T16:29:42.245Z,46.30
2018-08-22T16:32:16.730Z,46.60
2018-08-22T16:34:51.468Z,46.70
2018-08-22T16:37:25.957Z,46.40
2018-08-22T16:40:00.692Z,47.10
2018-08-22T16:42:38.337Z,46.30
2018-08-22T16:45:13.032Z,46.70
2018-08-22T16:47:48.118Z,46.80
2018-08-22T16:50:23.739Z,47.80
2018-08-22T16:52:59.491Z,47.80
2018-08-22T16:55:34.185Z,47.40
2018-08-22T16:58:09.632Z,47.80
2018-08-22T17:00:45.414Z,47.90
2018-08-22T17:03:21.722Z,48.20
2018-08-22T17:06:13.852Z,48.00
2018-08-22T17:08:48.697Z,48.30
2018-08-22T17:11:23.529Z,48.30
2018-08-22T17:13:58.389Z,48.30
2018-08-22T17:16:34.249Z,48.30
2018-08-22T17:19:08.787Z,48.20
2018-08-22T17:21:43.633Z,48.80
2018-08-22T17:24:18.487Z,48.90
2018-08-22T17:26:54.367Z,50.30
2018-08-22T17:29:29.188Z,49.80
2018-08-22T17:32:06.089Z,50.70
2018-08-22T17:34:40.925Z,50.80
2018-08-22T17:37:15.674Z,50.80
2018-08-22T17:39:50.394Z,51.20
2018-08-22T17:42:25.125Z,51.60
2018-08-22T17:44:59.857Z,52.00
2018-08-22T17:47:34.573Z,51.90
2018-08-22T17:50:10.232Z,52.30
2018-08-22T17:52:44.997Z,52.80
2018-08-22T17:55:19.816Z,53.00
2018-08-22T17:57:54.656Z,53.70
2018-08-22T18:00:32.091Z,53.50
2018-08-22T18:03:07.811Z,53.70
2018-08-22T18:05:42.560Z,53.70
2018-08-22T18:08:17.237Z,54.20
2018-08-22T18:10:52.034Z,54.50
2018-08-22T18:13:28.033Z,54.80
2018-08-22T18:16:02.780Z,55.00
2018-08-22T18:18:37.485Z,55.20
2018-08-22T18:21:12.209Z,55.50
2018-08-22T18:23:54.057Z,56.10
2018-08-22T18:26:29.852Z,56.10
2018-08-22T18:29:05.704Z,56.30
2018-08-22T18:31:40.454Z,56.90
2018-08-22T18:34:15.223Z,56.90
2018-08-22T18:36:49.953Z,56.80
2018-08-22T18:39:25.690Z,56.80
2018-08-22T18:42:01.464Z,57.30
2018-08-22T18:44:36.257Z,57.60
2018-08-22T18:47:11.180Z,58.00
2018-08-22T18:49:46.927Z,58.40
2018-08-22T18:52:21.661Z,58.60
2018-08-22T18:54:56.473Z,59.20
2018-08-22T18:57:31.249Z,59.40
2018-08-22T19:00:09.853Z,59.60
2018-08-22T19:02:44.575Z,59.80
2018-08-22T19:05:22.309Z,59.80
2018-08-22T19:08:05.948Z,60.00
2018-08-22T19:10:42.040Z,60.10
2018-08-22T19:13:22.819Z,60.50
2018-08-22T19:16:04.875Z,60.80
2018-08-22T19:18:40.006Z,60.90
2018-08-22T19:21:14.777Z,61.10
2018-08-22T19:23:54.586Z,61.10
2018-08-22T19:26:29.315Z,61.20
2018-08-22T19:29:06.497Z,61.20
2018-08-22T19:31:46.332Z,61.40
2018-08-22T19:34:21.091Z,61.80
2018-08-22T19:36:56.844Z,62.00
2018-08-22T19:39:31.551Z,62.20
2018-08-22T19:42:06.329Z,62.00
2018-08-22T19:44:41.041Z,62.20
2018-08-22T19:47:15.809Z,62.60
2018-08-22T19:49:50.508Z,62.80
2018-08-22T19:52:25.618Z,62.60
2018-08-22T19:55:02.661Z,62.80
2018-08-22T19:57:39.460Z,62.60
2018-08-22T20:00:15.412Z,62.60
2018-08-22T20:02:50.292Z,62.50
2018-08-22T20:05:26.170Z,62.40
2018-08-22T20:08:00.876Z,62.00
2018-08-22T20:10:35.658Z,62.00
2018-08-22T20:13:11.390Z,62.30
2018-08-22T20:15:47.162Z,62.50
2018-08-22T20:18:21.883Z,63.10
2018-08-22T20:20:56.680Z,63.30
2018-08-22T20:23:31.466Z,63.60
2018-08-22T20:26:06.506Z,63.70
2018-08-22T20:28:45.384Z,64.00
2018-08-22T20:31:20.292Z,64.20
2018-08-22T20:34:05.590Z,64.50
2018-08-22T20:36:44.057Z,65.30
2018-08-22T20:39:18.859Z,65.50
2018-08-22T20:41:57.701Z,66.70
2018-08-22T20:44:33.416Z,67.30
2018-08-22T20:47:08.167Z,67.60
2018-08-22T20:49:42.856Z,67.90
2018-08-22T20:52:18.132Z,68.70
2018-08-22T20:55:23.513Z,68.90
2018-08-22T20:58:04.497Z,69.90
2018-08-22T21:00:39.335Z,70.30
2018-08-22T21:03:14.094Z,70.10
2018-08-22T21:05:50.531Z,70.60
2018-08-22T21:08:25.325Z,70.90
2018-08-22T21:11:00.069Z,71.00
2018-08-22T21:13:35.085Z,71.40
2018-08-22T21:16:25.218Z,71.40
2018-08-22T21:19:06.096Z,71.80
2018-08-22T21:21:47.696Z,72.00
2018-08-22T21:24:22.499Z,72.70
2018-08-22T21:26:58.537Z,72.50
2018-08-22T21:36:11.104Z,74.30
2018-08-22T21:38:48.476Z,74.70
2018-08-22T21:41:25.165Z,75.10
2018-08-22T21:44:19.958Z,75.60
2018-08-22T21:47:06.061Z,76.20
2018-08-22T21:49:40.780Z,76.40
2018-08-22T21:52:39.301Z,76.70
2018-08-22T21:55:14.113Z,77.30
2018-08-22T21:58:01.465Z,77.60
2018-08-22T22:00:36.448Z,77.80
2018-08-22T22:03:34.095Z,78.20
2018-08-22T22:06:08.824Z,78.70
2018-08-22T22:08:44.751Z,79.20
2018-08-22T22:11:22.665Z,79.80
2018-08-22T22:14:16.196Z,80.50
2018-08-22T22:16:53.472Z,81.40
2018-08-22T22:19:32.324Z,82.00
2018-08-22T22:22:07.120Z,82.10
2018-08-22T22:27:53.557Z,82.30
2018-08-22T22:36:48.294Z,83.10
2018-08-22T22:39:35.901Z,83.70
2018-08-22T22:42:45.033Z,84.20
2018-08-22T22:45:29.856Z,84.30
2018-08-22T22:48:05.648Z,84.70
2018-08-22T22:50:47.674Z,86.30
2018-08-22T22:53:22.400Z,87.90
2018-08-22T22:55:57.599Z,87.70
2018-08-22T23:01:30.135Z,89.00
2018-08-22T23:04:21.605Z,88.50
2018-08-22T23:07:36.241Z,88.60
2018-08-22T23:10:22.108Z,88.60
2018-08-22T23:12:57.760Z,89.20
2018-08-22T23:15:42.344Z,90.10
2018-08-22T23:18:23.060Z,90.30
2018-08-22T23:21:04.817Z,90.50
2018-08-22T23:29:43.276Z,91.10
2018-08-22T23:35:26.363Z,91.30
2018-08-22T23:38:19.167Z,91.50
2018-08-22T23:41:26.943Z,91.50
2018-08-22T23:44:01.820Z,91.40
2018-08-22T23:46:36.642Z,91.50
2018-08-22T23:49:11.392Z,91.70
2018-08-22T23:51:46.143Z,91.80
2018-08-22T23:54:20.807Z,91.80
2018-08-22T23:56:59.641Z,92.10
2018-08-22T23:59:34.349Z,92.10
